Camden, AL

6:09 AM CDT on September 16, 2014 (GMT -0500)
Greenville Municipal | Change Station
CLOSE
Current Station
Airport
Location: Greenville,
Elevation: 449 ft
Nearby Weather Stations

Elev 449 ft 31.85 °N, 86.61 °W | Updated 13 minutes ago

Partly Cloudy
Partly Cloudy
74 °F
Feels Like 74 °F
N
5
Wind Variable Wind from NNW

Today
High -- | Low -- °F
--% Chance of Precip.
Yesterday
High -- | Low -- °F
Precip. -- in
6:33 AM 6:53 PM
Waning Gibbous, 46% visible
Pressure 30.05 in
Visibility 0.8 miles
Clouds
Dew Point 72 °F
Humidity 93%
Rainfall 0.00 in
Snow Depth Not available.
UV Not available.
Pollen 8.30 out of 12
Air Quality Not available.
Flu Activity Not available.
METAR KPRN 161056Z AUTO 34004KT 3/4SM BR VV002 23/22 A3007 RMK AO2 SLP176 T02330222 $

More Conditions Fewer Conditions

Pressure 30.05 in
Visibility 0.8 miles
Clouds
Dew Point 72 °F
Humidity 93%
Rainfall 0.00 in
Snow Depth Not available.
UV Not available.
Pollen 8.30 out of 12
Air Quality Not available.
Flu Activity Not available.
METAR KPRN 161056Z AUTO 34004KT 3/4SM BR VV002 23/22 A3007 RMK AO2 SLP176 T02330222 $

More Conditions Fewer Conditions

10-Day Weather Forecast

Almanac

Astronomy

Sep. 16, 2014 Rise Set
Actual Time 6:33 AM CDT 6:53 PM CDT
Civil Twilight 6:09 AM CDT 7:18 PM CDT
Nautical Twilight 5:40 AM CDT 7:46 PM CDT
Astronomical Twilight 5:11 AM CDT 8:15 PM CDT
Moon No Moon Rise 2:02 PM CDT
Length of Visible Light 13h 08m
Length of Day
12h 20m
Tomorrow will be 1m 56s shorter.
Waning Gibbous, 46% of the Moon is Illuminated
Today
Waning Gibbous
Sep 24
New
Oct 1
First Quarter
Oct 8
Full
Oct 15
Last Quarter

Today's Extremes

State Highs State Lows

Community

WunderPhotos

Upload Photos

1,753,722 photos uploaded!

WunderBlogs® & News

Nearby

Snow Depth

Station Depth Elevation
No new snow has been reported.

Earthquake Activity

City Distance Mag. Time & Date
No recent earthquake activity has been reported nearby.
Minimum magnitude displayed is 2.5.

Coastal Water Temperatures

Place Temperature
No Stations Reporting

Nearby Weather Stations